Time;durP1;ratioP1;P1;durP2;ratioP2;P2;SDS_P1;SDS_P2;PMS_P1;PMS_P2;Temp;Humidity;BMP_temperature;BMP_pressure;BME280_temperature;BME280_humidity;BME280_pressure;Samples;Min_cycle;Max_cycle;Signal;HPM_P1;HPM_P2
2022/05/20 00:00:58;;;;;;;4.80;3.53;;;16.10;99.90;;;;;;5004764;28;20266;-67
2022/05/20 00:03:24;;;;;;;3.25;2.90;;;16.00;99.90;;;;;;5009123;28;20184;-67
2022/05/20 00:05:49;;;;;;;4.95;3.63;;;16.00;99.90;;;;;;5006846;28;20994;-67
2022/05/20 00:08:15;;;;;;;4.13;3.70;;;15.90;99.90;;;;;;5012505;28;20209;-70
2022/05/20 00:10:41;;;;;;;4.22;3.40;;;15.90;99.90;;;;;;5004978;28;20187;-69
2022/05/20 00:13:07;;;;;;;6.60;3.70;;;15.80;99.90;;;;;;5005544;28;20203;-69
2022/05/20 00:15:33;;;;;;;4.60;4.20;;;15.80;99.90;;;;;;5004274;28;20178;-71
2022/05/20 00:17:59;;;;;;;5.32;4.82;;;15.80;99.90;;;;;;5005092;28;20204;-69
2022/05/20 00:20:27;;;;;;;7.55;5.43;;;15.80;99.90;;;;;;5011660;28;20214;-67
2022/05/20 00:22:53;;;;;;;5.63;5.13;;;15.80;99.90;;;;;;5005407;28;20195;-66
2022/05/20 00:28:05;;;;;;;6.85;6.15;;;15.80;99.90;;;;;;4995209;28;20222;-71
2022/05/20 00:30:31;;;;;;;7.00;6.30;;;15.80;99.90;;;;;;5005068;28;20623;-69
2022/05/20 00:32:56;;;;;;;8.00;7.22;;;15.80;99.90;;;;;;5005036;28;20242;-68
2022/05/20 00:35:23;;;;;;;8.25;7.43;;;15.80;99.90;;;;;;5003979;28;20262;-70
2022/05/20 00:37:49;;;;;;;8.68;7.53;;;15.80;99.90;;;;;;5005422;28;20207;-68
2022/05/20 00:40:18;;;;;;;9.98;8.98;;;15.80;99.90;;;;;;5008580;28;20262;-69
2022/05/20 00:42:44;;;;;;;11.95;8.73;;;15.90;99.90;;;;;;5004440;28;20519;-68
2022/05/20 00:45:11;;;;;;;9.40;8.32;;;15.90;99.90;;;;;;5004242;28;20186;-68
2022/05/20 00:47:37;;;;;;;11.30;9.05;;;16.00;99.90;;;;;;5009439;28;20677;-70
2022/05/20 00:50:07;;;;;;;8.57;7.78;;;16.00;99.90;;;;;;4986999;28;20184;-71
2022/05/20 00:52:35;;;;;;;11.23;9.38;;;16.10;99.90;;;;;;5011630;28;20657;-70
2022/05/20 00:55:10;;;;;;;11.13;9.25;;;16.20;99.90;;;;;;5007876;28;20186;-69
2022/05/20 00:57:44;;;;;;;9.40;8.15;;;16.20;99.90;;;;;;5008841;28;20195;-69
2022/05/20 01:00:15;;;;;;;13.73;9.55;;;16.20;99.90;;;;;;5008753;28;20184;-69
2022/05/20 01:02:41;;;;;;;11.38;10.30;;;16.20;99.90;;;;;;4990648;28;20558;-70
2022/05/20 01:05:21;;;;;;;12.05;10.32;;;16.10;99.90;;;;;;5009126;28;20187;-70
2022/05/20 01:07:47;;;;;;;11.43;10.27;;;16.10;99.90;;;;;;5006809;28;20241;-67
2022/05/20 01:10:13;;;;;;;10.68;9.50;;;16.00;99.90;;;;;;5011242;28;20559;-69
2022/05/20 01:12:38;;;;;;;12.63;10.98;;;16.00;99.90;;;;;;5010833;28;20219;-68
2022/05/20 01:15:05;;;;;;;13.50;12.25;;;15.90;99.90;;;;;;5007702;28;20188;-69
2022/05/20 01:17:31;;;;;;;13.27;11.88;;;15.90;99.90;;;;;;5007530;28;20210;-70
2022/05/20 01:19:58;;;;;;;13.63;12.07;;;15.90;99.90;;;;;;5008362;28;20179;-68
2022/05/20 01:22:46;;;;;;;12.88;11.57;;;15.90;99.90;;;;;;5007461;28;20757;-69
2022/05/20 01:25:12;;;;;;;15.45;14.05;;;15.80;99.90;;;;;;5012948;28;20262;-70
2022/05/20 01:27:58;;;;;;;14.27;12.63;;;15.80;99.90;;;;;;5010239;28;20621;-69
2022/05/20 01:30:25;;;;;;;13.23;11.50;;;15.80;99.90;;;;;;4990333;28;20183;-71
2022/05/20 01:32:51;;;;;;;14.95;12.50;;;15.70;99.90;;;;;;5007468;28;20695;-69
2022/05/20 01:35:39;;;;;;;14.57;13.18;;;15.70;99.90;;;;;;5009671;28;20222;-69
2022/05/20 01:38:06;;;;;;;13.38;12.07;;;15.60;99.90;;;;;;5017160;28;20199;-67
2022/05/20 01:40:43;;;;;;;15.35;13.85;;;15.70;99.90;;;;;;4998768;28;20175;-69
2022/05/20 01:43:34;;;;;;;13.85;12.27;;;15.60;99.90;;;;;;5019353;28;20201;-69
2022/05/20 01:46:11;;;;;;;17.08;15.43;;;15.70;99.90;;;;;;5006585;28;20250;-69
2022/05/20 01:48:48;;;;;;;16.27;14.68;;;15.70;99.90;;;;;;5007865;28;20214;-71
2022/05/20 01:51:16;;;;;;;16.38;14.77;;;15.70;99.90;;;;;;5013573;28;20237;-67
2022/05/20 01:53:50;;;;;;;16.48;14.88;;;15.70;99.90;;;;;;5007850;28;20199;-70
2022/05/20 01:56:27;;;;;;;16.73;15.02;;;15.70;99.90;;;;;;5014618;28;20174;-70
2022/05/20 01:59:02;;;;;;;16.48;14.88;;;15.70;99.90;;;;;;5007773;28;20257;-69
2022/05/20 02:01:35;;;;;;;16.80;15.13;;;15.70;99.90;;;;;;5007253;28;20186;-68
2022/05/20 02:04:06;;;;;;;15.07;13.65;;;15.70;99.90;;;;;;5007405;28;20302;-70
2022/05/20 02:06:43;;;;;;;15.45;13.90;;;15.70;99.90;;;;;;4994489;28;20274;-67
2022/05/20 02:09:15;;;;;;;15.32;13.85;;;15.60;99.90;;;;;;5007081;28;20605;-67
2022/05/20 02:11:47;;;;;;;15.77;14.25;;;15.50;99.90;;;;;;5007023;28;20282;-67
2022/05/20 02:14:35;;;;;;;15.82;14.27;;;15.50;99.90;;;;;;5007369;28;20207;-66
2022/05/20 02:17:14;;;;;;;15.55;14.00;;;15.40;99.90;;;;;;5011051;28;20263;-67
2022/05/20 02:19:52;;;;;;;15.27;13.77;;;15.40;99.90;;;;;;5007494;28;20207;-69
2022/05/20 02:22:22;;;;;;;17.20;15.52;;;15.30;99.90;;;;;;4989106;28;20230;-67
2022/05/20 02:24:50;;;;;;;17.27;15.48;;;15.30;99.90;;;;;;5007154;28;20192;-68
2022/05/20 02:27:26;;;;;;;16.20;14.60;;;15.20;99.90;;;;;;5010301;28;20607;-69
2022/05/20 02:29:59;;;;;;;17.00;15.18;;;15.30;99.90;;;;;;5007030;28;20191;-70
2022/05/20 02:32:30;;;;;;;18.45;16.65;;;15.20;99.90;;;;;;5006304;28;20242;-70
2022/05/20 02:34:56;;;;;;;19.98;17.98;;;15.20;99.90;;;;;;5010319;28;20186;-69
2022/05/20 02:37:26;;;;;;;20.55;18.40;;;15.20;99.90;;;;;;5006006;28;20199;-68
2022/05/20 02:39:53;;;;;;;22.00;19.67;;;15.20;99.90;;;;;;5006851;28;20596;-69
2022/05/20 02:42:19;;;;;;;25.23;20.83;;;15.20;99.90;;;;;;5006609;28;20187;-68
2022/05/20 02:44:45;;;;;;;22.23;19.15;;;15.30;99.90;;;;;;5006765;28;20198;-69
2022/05/20 02:47:11;;;;;;;19.67;17.80;;;15.40;99.90;;;;;;5005441;28;20207;-67
2022/05/20 02:49:37;;;;;;;22.50;20.20;;;15.40;99.90;;;;;;5006805;28;20192;-70
2022/05/20 02:52:04;;;;;;;22.92;20.63;;;15.40;99.90;;;;;;5006125;28;20257;-68
2022/05/20 02:54:30;;;;;;;24.33;21.83;;;15.50;99.90;;;;;;5006806;28;20246;-66
2022/05/20 02:56:56;;;;;;;21.30;19.15;;;15.60;99.90;;;;;;5005416;28;20227;-67
2022/05/20 03:04:50;;;;;;;19.67;17.65;;;15.80;99.90;;;;;;5006407;28;20784;-70
2022/05/20 03:07:15;;;;;;;18.95;17.13;;;15.80;99.90;;;;;;5005398;28;20208;-70
2022/05/20 03:09:41;;;;;;;22.33;20.02;;;15.70;99.90;;;;;;4989097;28;20521;-69
2022/05/20 03:12:07;;;;;;;22.90;20.48;;;15.70;99.90;;;;;;5006154;28;20202;-70
2022/05/20 03:14:33;;;;;;;21.45;19.35;;;15.70;99.90;;;;;;5015807;28;20685;-69
2022/05/20 03:17:00;;;;;;;22.92;20.67;;;15.70;99.90;;;;;;5005096;28;20199;-67
2022/05/20 03:19:30;;;;;;;24.33;21.80;;;15.70;99.90;;;;;;5005864;28;20179;-67
2022/05/20 03:21:56;;;;;;;22.77;20.45;;;15.70;99.90;;;;;;5005493;28;20207;-68
2022/05/20 03:24:21;;;;;;;24.60;22.10;;;15.70;99.90;;;;;;5006182;28;20191;-69
2022/05/20 03:26:47;;;;;;;24.30;21.88;;;15.80;99.90;;;;;;5004864;28;21008;-68
2022/05/20 03:29:13;;;;;;;25.50;22.75;;;15.90;99.90;;;;;;5008844;28;20204;-69
2022/05/20 03:31:39;;;;;;;22.17;19.88;;;16.00;99.90;;;;;;5011982;28;20978;-70
2022/05/20 03:34:06;;;;;;;24.13;21.83;;;16.00;99.90;;;;;;5012799;28;20211;-68
2022/05/20 03:36:34;;;;;;;23.33;21.13;;;16.10;99.90;;;;;;5012273;28;20175;-70
2022/05/20 03:38:59;;;;;;;22.60;20.27;;;16.10;99.90;;;;;;5014003;28;20180;-68
2022/05/20 03:41:25;;;;;;;23.67;21.17;;;16.20;99.90;;;;;;5006051;28;20187;-67
2022/05/20 03:43:51;;;;;;;21.40;19.20;;;16.30;99.90;;;;;;4989764;28;20555;-69
2022/05/20 03:46:16;;;;;;;21.60;19.33;;;16.30;99.90;;;;;;5004521;28;20249;-70
2022/05/20 03:48:42;;;;;;;21.98;19.75;;;16.30;99.90;;;;;;5010465;28;20226;-68
2022/05/20 03:51:10;;;;;;;23.13;20.80;;;16.40;99.90;;;;;;5005067;28;20933;-68
2022/05/20 03:53:35;;;;;;;22.65;20.35;;;16.40;99.90;;;;;;5005584;28;20646;-69
2022/05/20 03:56:01;;;;;;;22.77;20.58;;;16.40;99.90;;;;;;5004778;28;20176;-67
2022/05/20 03:58:27;;;;;;;21.65;19.55;;;16.30;99.90;;;;;;5005605;28;20210;-68
2022/05/20 04:03:41;;;;;;;22.70;20.17;;;16.40;99.90;;;;;;5005545;28;20214;-70
2022/05/20 04:06:07;;;;;;;20.65;18.55;;;16.40;99.90;;;;;;5003845;28;20183;-69
2022/05/20 04:08:33;;;;;;;21.90;19.70;;;16.40;99.90;;;;;;5005264;28;20294;-68
2022/05/20 04:10:58;;;;;;;23.45;20.80;;;16.40;99.90;;;;;;5012230;28;20193;-66
2022/05/20 04:13:24;;;;;;;21.98;18.25;;;16.40;99.90;;;;;;5005046;28;20207;-68
2022/05/20 04:15:50;;;;;;;21.05;18.45;;;16.30;99.90;;;;;;4993138;28;20210;-65
2022/05/20 04:18:16;;;;;;;19.67;17.58;;;16.30;99.90;;;;;;5005024;28;20195;-66
2022/05/20 04:20:41;;;;;;;20.25;18.10;;;16.30;99.90;;;;;;5009040;28;20183;-70
2022/05/20 04:23:07;;;;;;;21.58;19.48;;;16.30;99.90;;;;;;5011706;28;20191;-67
2022/05/20 04:25:33;;;;;;;21.58;19.17;;;16.30;99.90;;;;;;5003885;28;20565;-68
2022/05/20 04:27:58;;;;;;;21.30;18.70;;;16.40;99.90;;;;;;5005417;28;20315;-70
2022/05/20 04:30:24;;;;;;;20.17;18.05;;;16.40;99.90;;;;;;4998944;28;20187;-67
2022/05/20 04:32:49;;;;;;;20.27;17.77;;;16.50;99.90;;;;;;5005551;28;20210;-68
2022/05/20 04:35:15;;;;;;;20.48;18.42;;;16.50;99.90;;;;;;5004405;28;20179;-68
2022/05/20 04:37:40;;;;;;;20.75;18.55;;;16.60;99.90;;;;;;5010683;28;20574;-70
2022/05/20 04:40:07;;;;;;;20.45;18.33;;;16.60;99.90;;;;;;5004613;28;20195;-66
2022/05/20 04:48:05;;;;;;;17.98;16.00;;;17.60;99.90;;;;;;5005090;28;20226;-70
2022/05/20 04:50:31;;;;;;;18.33;16.35;;;18.10;99.90;;;;;;5005859;28;20179;-67
2022/05/20 04:52:57;;;;;;;17.25;14.93;;;18.50;99.90;;;;;;4986712;28;20659;-70
2022/05/20 04:55:22;;;;;;;15.25;13.85;;;18.70;99.90;;;;;;5008923;28;20183;-66
2022/05/20 04:57:50;;;;;;;18.05;16.15;;;19.00;99.90;;;;;;5005760;28;20721;-70
2022/05/20 05:00:22;;;;;;;18.95;16.70;;;19.10;99.90;;;;;;5006757;28;20179;-68
2022/05/20 05:02:49;;;;;;;19.77;17.67;;;19.30;99.90;;;;;;5013225;28;20628;-68
2022/05/20 05:05:19;;;;;;;17.60;15.80;;;19.80;99.90;;;;;;5005662;28;20205;-66
2022/05/20 05:07:47;;;;;;;18.38;16.48;;;20.40;99.90;;;;;;5014362;28;20242;-67
2022/05/20 05:10:15;;;;;;;18.75;16.85;;;20.60;99.90;;;;;;5010091;28;20241;-66
2022/05/20 05:12:41;;;;;;;21.05;17.45;;;20.90;99.90;;;;;;5003508;28;20183;-69
2022/05/20 05:15:08;;;;;;;19.85;16.90;;;21.20;99.90;;;;;;5003734;28;20226;-68
2022/05/20 05:20:24;;;;;;;22.55;20.00;;;21.30;99.90;;;;;;5004554;28;20191;-71
2022/05/20 05:22:54;;;;;;;19.85;17.50;;;20.90;99.90;;;;;;5009183;28;20542;-66
2022/05/20 05:25:26;;;;;;;20.20;18.13;;;20.60;99.90;;;;;;5003498;28;20188;-68
2022/05/20 05:27:52;;;;;;;19.05;17.10;;;20.60;99.90;;;;;;5013404;28;20229;-68
2022/05/20 05:30:19;;;;;;;20.55;18.52;;;20.70;99.90;;;;;;5008303;28;20183;-69
2022/05/20 05:32:45;;;;;;;19.70;16.45;;;20.40;99.90;;;;;;5004319;28;20187;-70
2022/05/20 05:35:14;;;;;;;19.42;17.17;;;20.20;99.90;;;;;;5003191;28;20203;-70
2022/05/20 05:37:41;;;;;;;19.60;16.63;;;20.70;99.90;;;;;;5004292;28;20207;-67
2022/05/20 05:40:09;;;;;;;18.33;15.98;;;21.40;99.90;;;;;;5007923;28;20180;-68
2022/05/20 05:42:35;;;;;;;15.98;14.15;;;21.60;99.90;;;;;;5014548;28;20285;-67
2022/05/20 05:45:03;;;;;;;17.90;15.95;;;21.80;99.90;;;;;;5007065;28;20653;-70
2022/05/20 05:47:29;;;;;;;16.73;13.90;;;21.90;99.90;;;;;;5008274;28;20199;-68
2022/05/20 05:49:54;;;;;;;15.30;13.75;;;22.10;99.90;;;;;;5011887;28;20810;-67
2022/05/20 05:52:20;;;;;;;14.00;12.43;;;22.50;99.90;;;;;;5007433;28;20741;-65
2022/05/20 05:54:45;;;;;;;14.18;12.77;;;22.90;99.90;;;;;;5007934;28;20219;-68
2022/05/20 05:57:11;;;;;;;13.88;12.38;;;23.20;99.90;;;;;;5013921;28;20214;-69
2022/05/20 05:59:37;;;;;;;12.90;11.68;;;23.60;99.90;;;;;;4990375;28;20705;-69
2022/05/20 06:02:04;;;;;;;13.85;12.45;;;23.40;99.90;;;;;;5007184;28;21104;-67
2022/05/20 06:04:30;;;;;;;13.68;12.30;;;23.10;99.90;;;;;;5009889;28;20234;-67
2022/05/20 06:06:55;;;;;;;12.65;11.35;;;23.10;99.90;;;;;;5011200;28;20244;-68
2022/05/20 06:09:22;;;;;;;12.77;11.50;;;23.20;99.90;;;;;;5013282;28;20183;-68
2022/05/20 06:11:49;;;;;;;14.05;12.48;;;23.50;99.90;;;;;;4991523;28;20553;-68
2022/05/20 06:14:14;;;;;;;12.73;11.43;;;23.50;99.90;;;;;;5006953;28;20209;-69
2022/05/20 06:16:40;;;;;;;12.45;11.15;;;23.60;99.90;;;;;;5006691;28;20191;-72
2022/05/20 06:19:06;;;;;;;13.07;11.77;;;23.70;99.90;;;;;;5013080;28;20229;-69
2022/05/20 06:21:32;;;;;;;13.27;11.98;;;24.00;99.90;;;;;;5010268;28;20179;-69
2022/05/20 06:24:00;;;;;;;13.02;11.68;;;24.20;99.90;;;;;;5009849;28;20696;-69
2022/05/20 06:26:30;;;;;;;13.98;11.00;;;24.60;99.90;;;;;;5007873;28;20271;-70
2022/05/20 06:28:56;;;;;;;11.10;10.00;;;24.90;99.90;;;;;;5011706;28;20195;-68
2022/05/20 06:31:21;;;;;;;11.55;10.48;;;25.30;99.90;;;;;;5006981;28;20192;-68
2022/05/20 06:33:47;;;;;;;11.00;9.93;;;25.70;99.90;;;;;;5007263;28;20729;-66
2022/05/20 06:41:42;;;;;;;10.98;9.98;;;24.40;99.90;;;;;;5008755;28;20206;-68
2022/05/20 06:44:11;;;;;;;11.10;10.00;;;24.20;99.90;;;;;;5053078;23;20225;-87
2022/05/20 06:46:37;;;;;;;11.55;10.45;;;23.50;99.90;;;;;;5025773;28;20316;-86
2022/05/20 06:49:09;;;;;;;11.15;10.05;;;23.20;99.90;;;;;;5029102;28;20760;-83
2022/05/20 06:51:37;;;;;;;10.52;9.52;;;23.10;99.90;;;;;;5026256;28;20481;-87
2022/05/20 06:54:05;;;;;;;10.88;9.77;;;23.60;99.90;;;;;;5027153;28;20206;-85
2022/05/20 06:56:31;;;;;;;10.70;9.70;;;24.00;99.90;;;;;;5045513;28;20419;-84
2022/05/20 06:59:00;;;;;;;10.73;9.73;;;23.10;99.90;;;;;;5030696;28;20205;-84
2022/05/20 07:01:26;;;;;;;10.90;9.90;;;23.20;99.90;;;;;;5049296;28;20253;-83
2022/05/20 07:03:52;;;;;;;10.13;8.98;;;23.80;99.90;;;;;;5049236;28;20190;-88
2022/05/20 07:06:18;;;;;;;10.32;9.32;;;24.30;99.90;;;;;;5031379;28;20660;-87
2022/05/20 07:08:50;;;;;;;9.27;8.45;;;24.50;99.90;;;;;;5031397;28;20193;-86
2022/05/20 07:11:18;;;;;;;9.02;8.13;;;24.30;99.90;;;;;;5030913;28;20214;-84
2022/05/20 07:13:45;;;;;;;10.38;9.32;;;24.20;99.90;;;;;;5049406;28;20198;-83
2022/05/20 07:16:11;;;;;;;10.38;9.25;;;23.80;99.90;;;;;;5030688;28;20262;-86
2022/05/20 07:18:37;;;;;;;10.15;8.73;;;23.40;99.90;;;;;;5031106;28;20174;-84
2022/05/20 07:21:03;;;;;;;10.07;9.07;;;22.80;99.90;;;;;;5031337;28;20228;-84
2022/05/20 07:23:31;;;;;;;10.95;9.95;;;22.30;99.90;;;;;;5048339;28;20189;-88
2022/05/20 07:25:56;;;;;;;9.73;8.75;;;21.80;99.90;;;;;;5029580;28;20597;-88
2022/05/20 07:28:22;;;;;;;10.82;8.98;;;21.40;99.90;;;;;;5027480;28;20212;-88
2022/05/20 07:30:48;;;;;;;11.38;9.43;;;21.40;99.90;;;;;;5027589;28;20660;-88
2022/05/20 07:33:13;;;;;;;9.98;9.05;;;21.30;99.90;;;;;;5045315;28;20202;-87
2022/05/20 07:35:39;;;;;;;11.95;9.30;;;21.20;99.90;;;;;;5044789;28;20268;-88
2022/05/20 07:38:06;;;;;;;10.00;9.10;;;21.20;99.90;;;;;;5028327;28;20224;-88
2022/05/20 07:40:32;;;;;;;9.93;8.82;;;21.00;99.90;;;;;;5046718;28;20178;-87
2022/05/20 07:42:58;;;;;;;9.32;8.35;;;20.80;99.90;;;;;;5030554;28;20198;-88
2022/05/20 07:45:24;;;;;;;10.10;9.10;;;20.70;99.90;;;;;;5029258;28;20216;-92
2022/05/20 07:47:50;;;;;;;10.30;8.95;;;20.80;99.90;;;;;;5029304;28;20289;-88
2022/05/20 07:50:16;;;;;;;10.27;9.27;;;20.80;99.90;;;;;;5047159;28;20268;-87
2022/05/20 07:55:33;;;;;;;10.02;9.05;;;20.00;99.90;;;;;;5049903;28;20236;-87
2022/05/20 07:58:01;;;;;;;10.27;9.27;;;20.40;99.90;;;;;;5039380;28;20198;-87
2022/05/20 08:00:27;;;;;;;10.18;9.00;;;20.70;99.90;;;;;;5028906;28;20236;-87
2022/05/20 08:02:56;;;;;;;9.27;8.38;;;20.90;99.90;;;;;;5031567;28;20178;-88
2022/05/20 08:05:22;;;;;;;9.40;8.38;;;20.90;99.90;;;;;;5030047;28;20189;-87
2022/05/20 08:07:49;;;;;;;8.88;7.97;;;20.80;99.90;;;;;;5029561;28;20241;-88
2022/05/20 08:10:21;;;;;;;9.88;8.93;;;21.00;99.90;;;;;;5031499;28;20214;-88
2022/05/20 08:12:47;;;;;;;10.13;9.13;;;20.90;99.90;;;;;;5030983;28;20179;-87
2022/05/20 08:15:13;;;;;;;9.85;8.68;;;20.90;99.90;;;;;;5032365;28;20272;-89
2022/05/20 08:17:40;;;;;;;10.73;9.48;;;20.90;99.90;;;;;;5032243;28;20203;-87
2022/05/20 08:20:09;;;;;;;11.07;9.60;;;20.90;99.90;;;;;;5032997;28;20231;-89
2022/05/20 08:22:36;;;;;;;9.57;8.65;;;20.60;99.90;;;;;;5048844;28;20178;-89
2022/05/20 08:25:02;;;;;;;10.18;9.27;;;20.70;99.90;;;;;;5033052;28;20636;-87
2022/05/20 08:27:29;;;;;;;10.40;9.50;;;20.80;99.90;;;;;;5025648;28;20202;-88
2022/05/20 08:29:56;;;;;;;10.20;9.30;;;20.60;99.90;;;;;;5029433;28;20190;-87
2022/05/20 08:32:21;;;;;;;11.18;10.02;;;20.50;99.90;;;;;;5026435;28;20678;-84
2022/05/20 08:34:48;;;;;;;11.07;10.07;;;20.30;99.90;;;;;;5024065;28;20206;-84
2022/05/20 08:37:15;;;;;;;12.68;10.55;;;20.30;99.90;;;;;;5026577;28;20245;-84
2022/05/20 08:39:41;;;;;;;11.27;10.18;;;20.20;99.90;;;;;;5025353;28;20305;-84
2022/05/20 08:42:18;;;;;;;10.60;9.60;;;20.30;99.90;;;;;;5025293;28;20710;-85
2022/05/20 08:44:44;;;;;;;12.77;10.23;;;20.30;99.90;;;;;;5025643;28;20232;-84
2022/05/20 08:47:36;;;;;;;12.43;10.38;;;20.50;99.90;;;;;;5043213;28;20230;-84
2022/05/20 08:50:06;;;;;;;11.57;10.48;;;20.40;99.90;;;;;;5026154;28;20672;-86
2022/05/20 08:52:32;;;;;;;10.77;9.68;;;20.60;99.90;;;;;;5043991;28;20178;-86
2022/05/20 08:54:58;;;;;;;9.68;8.77;;;20.70;99.90;;;;;;5044037;28;20229;-84
2022/05/20 08:57:28;;;;;;;10.45;9.43;;;20.80;99.90;;;;;;5026831;28;20564;-83
2022/05/20 08:59:54;;;;;;;10.50;9.50;;;20.70;99.90;;;;;;5044596;28;20174;-87
2022/05/20 09:02:21;;;;;;;10.30;9.30;;;20.30;99.90;;;;;;5026582;28;20211;-87
2022/05/20 09:04:47;;;;;;;11.95;10.50;;;20.40;99.90;;;;;;5026529;28;20567;-84
2022/05/20 09:07:15;;;;;;;10.60;9.55;;;20.30;99.90;;;;;;5026211;28;20233;-83
2022/05/20 09:09:47;;;;;;;11.05;9.77;;;20.30;99.90;;;;;;5025877;28;20197;-84
2022/05/20 09:12:31;;;;;;;11.38;10.27;;;20.50;99.90;;;;;;5025944;28;20178;-84
2022/05/20 09:18:02;;;;;;;10.55;9.57;;;20.40;99.90;;;;;;5049721;28;20707;-84
2022/05/20 09:20:28;;;;;;;10.73;9.73;;;20.60;99.90;;;;;;5031406;28;20185;-85
2022/05/20 09:23:03;;;;;;;11.57;10.40;;;20.80;99.90;;;;;;5050017;28;20201;-85
2022/05/20 09:25:32;;;;;;;10.00;9.00;;;20.80;99.90;;;;;;5048298;28;20208;-83
2022/05/20 09:28:38;;;;;;;11.02;9.93;;;20.90;99.90;;;;;;5031897;28;20690;-84
2022/05/20 09:31:31;;;;;;;11.57;10.43;;;20.90;99.90;;;;;;5027881;28;20182;-84
2022/05/20 09:34:15;;;;;;;13.25;10.65;;;21.00;99.90;;;;;;5050247;28;20190;-86
2022/05/20 09:37:01;;;;;;;12.23;10.93;;;21.20;99.90;;;;;;5032255;28;21082;-84
2022/05/20 09:39:32;;;;;;;13.52;10.30;;;21.10;99.90;;;;;;5050423;28;20630;-84
2022/05/20 09:42:04;;;;;;;10.75;9.65;;;21.30;99.90;;;;;;5033035;28;20186;-85
2022/05/20 09:44:55;;;;;;;12.55;10.60;;;21.10;99.90;;;;;;5031644;28;20260;-87
2022/05/20 09:47:43;;;;;;;11.50;10.30;;;20.90;99.90;;;;;;5029383;28;20293;-85
2022/05/20 09:50:35;;;;;;;10.15;9.15;;;20.90;99.90;;;;;;5028973;28;20186;-84
2022/05/20 09:53:21;;;;;;;12.73;8.60;;;20.90;99.90;;;;;;5030678;28;20256;-85
2022/05/20 09:55:47;;;;;;;9.90;7.82;;;21.00;99.90;;;;;;5030665;28;20526;-83
2022/05/20 09:58:30;;;;;;;9.60;8.60;;;21.30;99.90;;;;;;5046902;28;20424;-84
2022/05/20 10:01:10;;;;;;;11.00;9.88;;;21.60;99.90;;;;;;5045900;28;20725;-82
2022/05/20 10:03:38;;;;;;;11.63;9.63;;;21.50;99.90;;;;;;5025955;28;20241;-83
2022/05/20 10:06:33;;;;;;;10.63;9.55;;;21.30;99.90;;;;;;5045805;28;20261;-85
2022/05/20 10:09:07;;;;;;;8.82;7.93;;;21.30;99.90;;;;;;5044666;28;20182;-87
2022/05/20 10:11:45;;;;;;;11.02;8.93;;;21.40;99.90;;;;;;5017188;28;20552;-85
2022/05/20 10:14:23;;;;;;;10.52;9.52;;;21.60;99.90;;;;;;5024823;28;20210;-83
2022/05/20 10:17:09;;;;;;;11.82;8.90;;;21.50;99.90;;;;;;5027703;28;20206;-86
2022/05/20 10:19:48;;;;;;;9.35;8.45;;;21.60;99.90;;;;;;5028543;28;20661;-85
2022/05/20 10:22:29;;;;;;;11.20;9.95;;;21.60;99.90;;;;;;5022590;28;20659;-84
2022/05/20 10:25:06;;;;;;;9.88;8.68;;;21.50;99.90;;;;;;5025751;28;20298;-87
2022/05/20 10:28:01;;;;;;;10.05;8.88;;;21.60;99.90;;;;;;5027215;28;20540;-83
2022/05/20 10:33:31;;;;;;;8.88;8.07;;;21.70;99.90;;;;;;5045262;28;20324;-83
2022/05/20 10:36:31;;;;;;;10.48;8.75;;;21.80;99.90;;;;;;5026783;28;20268;-83
2022/05/20 10:39:05;;;;;;;9.27;8.38;;;21.80;99.90;;;;;;5027379;28;20178;-86
2022/05/20 10:41:58;;;;;;;8.80;7.90;;;21.70;99.90;;;;;;5046293;28;20205;-84
2022/05/20 10:51:18;;;;;;;9.10;7.95;;;21.90;99.90;;;;;;5045630;28;20189;-86
2022/05/20 10:53:59;;;;;;;9.02;8.13;;;21.90;99.90;;;;;;5024119;28;20301;-86
2022/05/20 10:56:43;;;;;;;8.60;7.32;;;21.70;99.90;;;;;;5029216;28;20202;-86
2022/05/20 10:59:18;;;;;;;8.93;8.02;;;21.90;99.90;;;;;;5028884;28;20186;-86
2022/05/20 11:02:15;;;;;;;9.40;7.60;;;22.10;99.90;;;;;;5027485;28;20686;-86
2022/05/20 11:05:03;;;;;;;9.40;8.50;;;22.30;99.90;;;;;;5028218;28;20194;-86
2022/05/20 11:07:56;;;;;;;7.15;6.55;;;22.60;99.90;;;;;;5027702;28;20672;-87
2022/05/20 11:10:55;;;;;;;9.48;8.00;;;22.70;99.90;;;;;;5029672;28;20641;-86
2022/05/20 11:13:54;;;;;;;6.10;5.50;;;22.80;99.90;;;;;;5006282;28;20210;-89
2022/05/20 11:17:06;;;;;;;7.45;6.75;;;23.00;99.90;;;;;;5046495;28;20170;-88
2022/05/20 11:19:40;;;;;;;8.10;7.13;;;23.30;99.90;;;;;;4949998;28;20188;-85
2022/05/20 11:22:22;;;;;;;8.48;7.68;;;23.60;99.90;;;;;;5039882;28;20200;-88
2022/05/20 11:25:05;;;;;;;7.88;6.53;;;23.60;99.90;;;;;;5029336;28;20209;-87
2022/05/20 11:28:18;;;;;;;7.78;7.03;;;23.60;99.90;;;;;;5026947;28;20580;-90
2022/05/20 11:30:59;;;;;;;7.03;6.30;;;23.60;99.90;;;;;;4954777;28;20194;-85
2022/05/20 11:33:44;;;;;;;7.50;6.07;;;23.50;99.90;;;;;;5027518;28;20263;-86
2022/05/20 11:36:36;;;;;;;8.55;7.75;;;24.00;99.90;;;;;;5027839;28;20645;-85
2022/05/20 11:39:01;;;;;;;8.95;7.78;;;24.20;99.90;;;;;;5028863;28;20179;-85
2022/05/20 11:41:40;;;;;;;9.35;7.28;;;24.20;99.90;;;;;;5029223;28;20236;-85
2022/05/20 11:44:15;;;;;;;7.93;7.22;;;24.20;99.90;;;;;;5027911;28;20202;-86
2022/05/20 11:47:05;;;;;;;6.97;6.28;;;23.70;99.90;;;;;;5029013;28;20259;-85
2022/05/20 11:49:35;;;;;;;10.43;6.30;;;24.10;99.90;;;;;;5028990;28;20256;-86
2022/05/20 11:52:09;;;;;;;7.43;6.72;;;24.40;99.90;;;;;;5028688;28;20239;-87
2022/05/20 11:54:50;;;;;;;7.95;6.82;;;24.30;99.90;;;;;;5027796;28;20197;-85
2022/05/20 11:57:21;;;;;;;6.93;6.32;;;24.20;99.90;;;;;;5027207;28;20602;-86
2022/05/20 12:00:08;;;;;;;7.80;6.97;;;24.30;99.90;;;;;;5028375;28;20270;-86
2022/05/20 12:02:46;;;;;;;8.75;6.80;;;24.30;99.90;;;;;;5028155;28;20174;-86
2022/05/20 12:05:16;;;;;;;5.63;5.13;;;24.50;99.90;;;;;;5031748;28;20182;-86
2022/05/20 12:07:42;;;;;;;7.90;7.10;;;24.60;99.90;;;;;;5031642;28;20295;-86
2022/05/20 12:10:19;;;;;;;5.70;5.13;;;24.70;99.90;;;;;;5033549;28;20174;-85
2022/05/20 12:13:06;;;;;;;6.07;5.10;;;24.90;99.90;;;;;;5030881;28;20182;-86
2022/05/20 12:15:44;;;;;;;5.53;5.03;;;24.90;99.90;;;;;;5027843;28;20186;-88
2022/05/20 12:24:15;;;;;;;5.97;5.45;;;25.40;99.90;;;;;;5050822;28;20185;-87
2022/05/20 12:26:50;;;;;;;7.45;6.75;;;25.30;99.90;;;;;;5030001;28;20217;-86
2022/05/20 12:29:34;;;;;;;6.85;5.78;;;25.10;99.90;;;;;;5029231;28;20189;-86
2022/05/20 12:32:20;;;;;;;6.63;5.68;;;25.10;99.90;;;;;;5029325;28;20193;-88
2022/05/20 12:35:03;;;;;;;6.82;6.22;;;25.10;99.90;;;;;;5028258;28;20746;-88
2022/05/20 12:37:52;;;;;;;7.00;6.30;;;25.20;99.90;;;;;;5028272;28;20209;-86
2022/05/20 12:40:40;;;;;;;8.40;7.60;;;25.50;99.90;;;;;;5027064;28;20208;-86
2022/05/20 12:43:10;;;;;;;5.90;5.32;;;25.50;99.90;;;;;;5028315;28;20190;-86
2022/05/20 12:45:51;;;;;;;5.72;5.22;;;25.30;99.90;;;;;;5027713;28;20684;-86
2022/05/20 12:48:21;;;;;;;7.15;6.55;;;25.30;99.90;;;;;;5027448;28;20206;-88
2022/05/20 12:51:01;;;;;;;7.32;6.60;;;25.40;99.90;;;;;;5028733;28;20194;-86
2022/05/20 12:53:36;;;;;;;6.05;5.47;;;25.10;99.90;;;;;;5045870;28;20217;-84
2022/05/20 12:56:02;;;;;;;5.60;5.10;;;25.20;99.90;;;;;;5029380;28;20198;-85
2022/05/20 12:58:32;;;;;;;5.47;4.97;;;25.00;99.90;;;;;;5031241;28;20237;-90
2022/05/20 13:01:01;;;;;;;6.53;5.93;;;25.10;99.90;;;;;;5032319;28;20174;-86
2022/05/20 13:03:31;;;;;;;7.32;6.32;;;25.20;99.90;;;;;;5033132;28;20201;-86
2022/05/20 13:06:01;;;;;;;5.20;4.70;;;25.00;99.90;;;;;;5033537;28;20229;-86
2022/05/20 13:08:32;;;;;;;6.38;5.40;;;;;;;;;;5029835;28;20201;-86
2022/05/20 13:11:09;;;;;;;6.85;6.18;;;;;;;;;;5033284;28;20201;-86
2022/05/20 13:13:36;;;;;;;6.93;6.18;;;;;;;;;;5032749;28;20205;-86
2022/05/20 13:16:03;;;;;;;6.72;6.03;;;;;;;;;;5033774;28;20213;-86
2022/05/20 13:18:34;;;;;;;5.78;5.28;;;;;;;;;;5019818;28;20299;-87
2022/05/20 13:21:21;;;;;;;7.80;7.00;;;;;;;;;;5021198;28;20651;-86
2022/05/20 13:23:48;;;;;;;6.38;5.88;;;;;;;;;;5032705;28;20186;-87
2022/05/20 13:26:33;;;;;;;5.68;5.18;;;;;;;;;;5033141;28;20175;-87
2022/05/20 13:28:59;;;;;;;6.50;6.00;;;;;;;;;;5023183;28;20182;-87
2022/05/20 13:31:26;;;;;;;6.50;5.85;;;;;;;;;;5032491;28;20182;-87
2022/05/20 13:33:52;;;;;;;7.07;6.47;;;;;;;;;;5033086;28;20672;-87
2022/05/20 13:36:21;;;;;;;7.93;7.22;;;;;;;;;;5033294;28;20214;-86
2022/05/20 13:41:35;;;;;;;7.28;6.55;;;;;;;;;;5871388;22;20299;-86
2022/05/20 13:44:02;;;;;;;8.88;8.07;;;;;;;;;;5010385;28;20309;-86
2022/05/20 13:49:17;;;;;;;8.52;7.65;;;;;;;;;;5011045;28;20884;-86
2022/05/20 13:51:43;;;;;;;8.52;7.75;;;;;;;;;;5009478;28;20204;-86
2022/05/20 13:54:11;;;;;;;6.90;6.30;;;;;;;;;;5010475;28;20226;-86